Flight Track Log - Related Links

Times and Time Zones

All times are in EDT time to prevent confusion due to time zone crossing. See the N27XP flight status page for this flight to view local times or setup timezone preferences in your user account.

Time Position Orientation Groundspeed Altitude Reporting Facility
EDT Latitude Longitude Course Direction KTS MPH feet Rate Location/Type
Fri 01:44:00 PM 36.1452 -79.9126 170° South  Level Estimated
Fri 01:45:00 PM 36.0643 -79.8951 170° South  Level Estimated
Fri 01:46:00 PM 35.9833 -79.8776 170° South  Level Estimated
Fri 01:47:00 PM 35.9024 -79.8602 170° South  Level Estimated
Fri 01:48:00 PM 35.8214 -79.8428 170° South  Level Estimated
Fri 01:49:00 PM 35.7405 -79.8254 170° South  Level Estimated
Fri 01:50:00 PM 35.6595 -79.8081 170° South  Level Estimated
Fri 01:51:00 PM 35.5786 -79.7908 170° South  Level Estimated
Fri 01:52:00 PM 35.4976 -79.7735 170° South  Level Estimated
Fri 01:53:00 PM 35.4167 -79.7563 170° South  Level Estimated
Fri 01:54:00 PM 35.3357 -79.7391 170° South  Level Estimated
Fri 01:55:00 PM 35.2548 -79.7220 170° South  Level Estimated
Fri 01:56:00 PM 35.1738 -79.7048 170° South  Level Estimated
Fri 01:57:00 PM 35.0928 -79.6878 170° South  Level Estimated
Fri 01:58:00 PM 35.0119 -79.6707 170° South  Level Estimated
Fri 01:59:00 PM 34.9309 -79.6537 170° South  Level Estimated
Fri 02:00:00 PM 34.8499 -79.6367 170° South  Level Estimated
Fri 02:01:00 PM 34.7689 -79.6198 170° South  Level Estimated
Fri 02:02:00 PM 34.6880 -79.6029 170° South  Level Estimated
Fri 02:03:00 PM 34.6070 -79.5860 170° South  Level Estimated
Fri 02:04:00 PM 34.5260 -79.5691 170° South  Level Estimated
Fri 02:05:00 PM 34.4450 -79.5523 170° South  Level Estimated
Fri 02:05:11 PM 33.8003 -79.3911 170° South 365 420 8,900  Level Jacksonville Center
Fri 02:06:00 PM 34.3640 -79.5355 170° South  Level Estimated
Fri 02:06:11 PM 33.7144 -79.3772 172° South 340 391 7,300  Level Jacksonville Center
Fri 02:07:00 PM 34.2831 -79.5188 170° South  Level Estimated
Fri 02:07:11 PM 33.6431 -79.3650 172° South 309 356 5,500  Level Jacksonville Center
Fri 02:08:00 PM 34.2020 -79.5021 170° South  Level Estimated
Fri 02:08:11 PM 33.5678 -79.3581 176° South 297 342 3,600  Level Jacksonville Center
Fri 02:09:00 PM 34.1211 -79.4854 170° South  Level Estimated
Fri 02:09:11 PM 33.4944 -79.3436 171° South 279 321 2,500  Level Jacksonville Center
Fri 02:10:00 PM 34.0401 -79.4687 170° South  Level Estimated
Fri 02:10:11 PM 33.4064 -79.3272 171° South 279 321 2,300  Level Jacksonville Center
Fri 02:12:00 PM 33.3114 -79.3203 177° South  Level Estimated
Fri 02:19:00 PM 33.3114 -79.3203 North  Level Estimated
Fri 02:20:00 PM 33.3114 -79.3203 North  Level Estimated
Fri 02:21:00 PM 33.3114 -79.3203 North  Level Estimated
Fri 02:22:00 PM 33.3114 -79.3203 North  Level Estimated
Fri 02:23:00 PM 33.3114 -79.3203 North  Level Estimated
Fri 02:24:00 PM 33.3114 -79.3203 North  Level Estimated
Fri 02:25:00 PM 33.3114 -79.3203 North  Level Estimated
Fri 02:26:00 PM 33.3114 -79.3203 North  Level Estimated
Fri 02:27:00 PM 33.3114 -79.3203 North  Level Estimated
Fri 02:28:00 PM 33.3114 -79.3203 North  Level Estimated
Fri 02:29:00 PM 33.3114 -79.3203 North  Level Estimated
Fri 02:30:00 PM 33.3114 -79.3203 North  Level Estimated
Fri 02:31:00 PM 33.3114 -79.3203 North  Level Estimated
Fri 02:32:00 PM 33.3114 -79.3203 North  Level Estimated
Fri 02:33:00 PM 33.3114 -79.3203 North  Level Estimated
Fri 02:34:00 PM 33.3114 -79.3203 North  Level Estimated
Fri 02:35:00 PM 33.3114 -79.3203 North  Level Estimated

Login

Don't have an account? Register now (free) for customized features, flight alerts, and more!